createdAt,value
2023-01-02T06:29:19.143Z,100625.06
2023-01-02T06:30:52.506Z,100624.22
2023-01-02T06:32:27.378Z,100618.25
2023-01-02T06:34:03.740Z,100631.34
2023-01-02T06:35:37.471Z,100612.28
2023-01-02T06:37:11.085Z,100617.63
2023-01-02T06:38:45.738Z,100620.28
2023-01-02T06:40:19.653Z,100621.28
2023-01-02T06:41:54.228Z,100631.09
2023-01-02T06:43:28.766Z,100628.56
2023-01-02T06:45:04.275Z,100629.78
2023-01-02T06:46:37.473Z,100622.03
2023-01-02T06:48:10.771Z,100623.94
2023-01-02T06:49:44.108Z,100624.13
2023-01-02T06:51:19.639Z,100618.97
2023-01-02T06:52:53.071Z,100622.56
2023-01-02T06:54:26.636Z,100631.34
2023-01-02T06:56:00.231Z,100628.03
2023-01-02T06:57:36.254Z,100620.25
2023-01-02T06:59:10.909Z,100629.09
2023-01-02T07:00:46.356Z,100631.72
2023-01-02T07:02:20.003Z,100631.81
2023-01-02T07:03:53.331Z,100629.28
2023-01-02T07:05:26.506Z,100628.53
2023-01-02T07:07:01.880Z,100631.16
2023-01-02T07:08:37.001Z,100626.16
2023-01-02T07:10:11.513Z,100621.81
2023-01-02T07:11:45.070Z,100627.31
2023-01-02T07:13:18.216Z,100622.28
2023-01-02T07:14:51.339Z,100622.50
2023-01-02T07:16:27.080Z,100622.69
2023-01-02T07:18:00.481Z,100624.63
2023-01-02T07:19:33.683Z,100627.41
2023-01-02T07:21:08.035Z,100614.59
2023-01-02T07:22:42.204Z,100623.53
2023-01-02T07:24:16.840Z,100626.34
2023-01-02T07:25:54.554Z,100617.91
2023-01-02T07:27:29.608Z,100616.25
2023-01-02T07:29:03.032Z,100616.38
2023-01-02T07:30:36.566Z,100626.19
2023-01-02T07:32:11.302Z,100625.38
2023-01-02T07:33:47.320Z,100630.72
2023-01-02T07:35:20.697Z,100624.63
2023-01-02T07:36:53.855Z,100630.13
2023-01-02T07:38:27.064Z,100628.72
2023-01-02T07:40:00.897Z,100621.19
2023-01-02T07:41:34.958Z,100629.22
2023-01-02T07:43:18.842Z,100618.06
2023-01-02T07:44:52.394Z,100626.09
2023-01-02T07:46:26.267Z,100620.94
2023-01-02T07:48:01.433Z,100619.16
2023-01-02T07:49:35.300Z,100611.44
2023-01-02T07:51:09.617Z,100619.44
2023-01-02T07:52:43.981Z,100612.44
2023-01-02T07:54:17.579Z,100595.78
2023-01-02T07:55:54.869Z,100610.66
2023-01-02T07:57:31.702Z,100601.84
2023-01-02T07:59:04.848Z,100603.50
2023-01-02T08:00:38.506Z,100593.72
2023-01-02T08:02:12.911Z,100606.75
2023-01-02T08:03:47.608Z,100604.78
2023-01-02T08:05:20.929Z,100606.25
2023-01-02T08:06:55.294Z,100604.31
2023-01-02T08:08:28.402Z,100595.22
2023-01-02T08:10:01.605Z,100598.56
2023-01-02T08:11:34.826Z,100589.47
2023-01-02T08:13:09.149Z,100586.69
2023-01-02T08:14:42.589Z,100578.53
2023-01-02T08:16:18.701Z,100578.28
2023-01-02T08:17:51.855Z,100580.47
2023-01-02T08:19:29.127Z,100580.13
2023-01-02T08:21:02.739Z,100578.13
2023-01-02T08:22:35.887Z,100571.69
2023-01-02T08:24:09.848Z,100572.63
2023-01-02T08:25:43.505Z,100580.38
2023-01-02T08:27:19.769Z,100573.94
2023-01-02T08:28:53.373Z,100571.94
2023-01-02T08:30:26.962Z,100573.41
2023-01-02T08:32:01.692Z,100564.41
2023-01-02T08:33:34.992Z,100564.38
2023-01-02T08:35:10.554Z,100568.66
2023-01-02T08:36:43.846Z,100562.25
2023-01-02T08:38:17.505Z,100566.34
2023-01-02T08:39:50.668Z,100562.72
2023-01-02T08:41:34.387Z,100562.41
2023-01-02T08:43:08.155Z,100553.00
2023-01-02T08:44:41.331Z,100554.25
2023-01-02T08:46:14.672Z,100549.63
2023-01-02T08:47:47.809Z,100544.19
2023-01-02T08:49:21.401Z,100547.59
2023-01-02T08:50:59.069Z,100535.28
2023-01-02T08:52:32.622Z,100543.38
2023-01-02T08:54:06.481Z,100539.84
2023-01-02T08:55:39.903Z,100540.56
2023-01-02T08:57:13.182Z,100535.78
2023-01-02T08:58:52.748Z,100536.75
2023-01-02T09:00:26.126Z,100537.75
2023-01-02T09:02:01.911Z,100536.31
2023-01-02T09:03:35.548Z,100531.28
2023-01-02T09:05:10.080Z,100525.63
2023-01-02T09:06:45.716Z,100522.63
2023-01-02T09:08:19.065Z,100525.69
2023-01-02T09:09:52.972Z,100520.38
2023-01-02T09:11:28.291Z,100508.22
2023-01-02T09:13:01.770Z,100520.06
2023-01-02T09:14:34.956Z,100506.09
2023-01-02T09:16:10.195Z,100510.56
2023-01-02T09:17:43.655Z,100513.34
2023-01-02T09:19:16.824Z,100506.94
2023-01-02T09:20:49.933Z,100502.75
2023-01-02T09:22:24.766Z,100497.66
2023-01-02T09:23:58.402Z,100498.56
2023-01-02T09:25:31.609Z,100480.09
2023-01-02T09:27:05.104Z,100484.63
2023-01-02T09:28:38.835Z,100488.28
2023-01-02T09:30:13.198Z,100480.59
2023-01-02T09:31:46.561Z,100472.28
2023-01-02T09:33:20.658Z,100480.72
2023-01-02T09:34:53.908Z,100456.34
2023-01-02T09:36:27.976Z,100468.75
2023-01-02T09:38:02.776Z,100460.25
2023-01-02T09:39:35.906Z,100464.31
2023-01-02T09:41:23.411Z,100467.13
2023-01-02T09:42:57.410Z,100461.25
2023-01-02T09:44:38.134Z,100466.34
2023-01-02T09:46:23.843Z,100464.59
2023-01-02T09:48:01.092Z,100456.31
2023-01-02T09:49:38.517Z,100442.75
2023-01-02T09:51:16.179Z,100452.78
2023-01-02T09:52:56.303Z,100435.06
2023-01-02T09:54:33.458Z,100434.84
2023-01-02T09:56:19.399Z,100435.91
2023-01-02T09:58:05.075Z,100429.75
2023-01-02T09:59:48.746Z,100423.81
2023-01-02T10:01:29.837Z,100432.03
2023-01-02T10:03:12.901Z,100424.34
2023-01-02T10:05:02.976Z,100422.72
2023-01-02T10:06:42.777Z,100429.72
2023-01-02T10:08:31.845Z,100424.53
2023-01-02T10:10:11.751Z,100420.38
2023-01-02T10:11:54.916Z,100413.34
2023-01-02T10:14:16.706Z,100412.50
2023-01-02T10:15:30.822Z,100400.13
2023-01-02T10:17:06.853Z,100406.16
2023-01-02T10:18:43.360Z,100400.81
2023-01-02T10:20:24.232Z,100384.06
2023-01-02T10:22:21.765Z,100400.59
2023-01-02T10:24:20.035Z,100387.19
2023-01-02T10:26:01.733Z,100373.00
2023-01-02T10:27:41.176Z,100382.56
2023-01-02T10:29:21.855Z,100360.72
2023-01-02T10:31:03.962Z,100391.13
2023-01-02T10:32:44.755Z,100376.78
2023-01-02T10:34:20.183Z,100380.91
2023-01-02T10:35:58.349Z,100375.47
2023-01-02T10:37:53.651Z,100364.66
2023-01-02T10:39:33.585Z,100368.94
2023-01-02T10:41:08.593Z,100364.47
2023-01-02T10:42:42.626Z,100366.09
2023-01-02T10:44:23.668Z,100356.34
2023-01-02T10:46:02.265Z,100353.59
2023-01-02T10:47:38.129Z,100356.00
2023-01-02T10:49:13.373Z,100344.47
2023-01-02T10:50:51.217Z,100354.66
2023-01-02T10:52:30.887Z,100349.97
2023-01-02T10:54:07.017Z,100347.13
2023-01-02T10:55:43.643Z,100345.09
2023-01-02T10:57:25.053Z,100345.88
2023-01-02T10:58:58.288Z,100345.72
2023-01-02T11:00:33.701Z,100338.53
2023-01-02T11:02:28.206Z,100320.09
2023-01-02T11:04:16.344Z,100334.72
2023-01-02T11:05:51.909Z,100331.03
2023-01-02T11:07:27.670Z,100323.84
2023-01-02T11:09:02.787Z,100326.28
2023-01-02T11:10:37.524Z,100326.09
2023-01-02T11:12:13.551Z,100317.09
2023-01-02T11:13:54.274Z,100313.28
2023-01-02T11:15:31.603Z,100312.09
2023-01-02T11:17:07.195Z,100305.63
2023-01-02T11:18:42.086Z,100314.22
2023-01-02T11:20:26.137Z,100313.03
2023-01-02T11:22:02.367Z,100299.53
2023-01-02T11:23:38.378Z,100302.13
2023-01-02T11:25:22.028Z,100298.34
2023-01-02T11:26:56.383Z,100291.06
2023-01-02T11:28:32.843Z,100290.00
2023-01-02T11:30:29.083Z,100287.16
2023-01-02T11:32:04.842Z,100286.13
2023-01-02T11:33:40.679Z,100283.22
2023-01-02T11:35:33.566Z,100278.47
2023-01-02T11:37:17.255Z,100280.03
2023-01-02T11:38:54.001Z,100263.84
2023-01-02T11:40:30.114Z,100268.13
2023-01-02T11:42:34.380Z,100254.75
2023-01-02T11:44:09.181Z,100261.59
2023-01-02T11:45:44.921Z,100255.28
2023-01-02T11:47:20.721Z,100258.69
2023-01-02T11:48:58.014Z,100244.28
2023-01-02T11:50:33.931Z,100254.69
2023-01-02T11:52:08.170Z,100236.91
2023-01-02T11:53:46.227Z,100244.56
2023-01-02T11:55:35.037Z,100229.50
2023-01-02T11:57:18.865Z,100239.69
2023-01-02T11:58:59.258Z,100247.41
2023-01-02T12:00:36.768Z,100243.69
2023-01-02T12:02:19.385Z,100228.47
2023-01-02T12:03:53.666Z,100234.31
2023-01-02T12:05:39.172Z,100235.03
2023-01-02T12:07:30.625Z,100227.88
2023-01-02T12:09:07.781Z,100228.88
2023-01-02T12:10:53.497Z,100230.50
2023-01-02T12:12:47.611Z,100225.94
2023-01-02T12:14:25.336Z,100222.22
2023-01-02T12:16:14.440Z,100214.03
2023-01-02T12:17:55.654Z,100216.66
2023-01-02T12:20:04.890Z,100216.53
2023-01-02T12:21:47.279Z,100204.88
2023-01-02T12:23:39.322Z,100208.25
2023-01-02T12:25:33.914Z,100215.31
2023-01-02T12:27:13.250Z,100210.72
2023-01-02T12:29:09.104Z,100205.28
2023-01-02T12:30:49.537Z,100202.56
2023-01-02T12:33:03.221Z,100198.72
2023-01-02T12:34:55.208Z,100205.66
2023-01-02T12:36:44.083Z,100210.88
2023-01-02T12:38:33.369Z,100210.69
2023-01-02T12:40:25.588Z,100191.03
2023-01-02T12:42:13.047Z,100197.97
2023-01-02T12:44:08.896Z,100198.84
2023-01-02T12:45:49.108Z,100189.91
2023-01-02T12:47:48.567Z,100193.34
2023-01-02T12:49:40.884Z,100195.66
2023-01-02T12:51:20.490Z,100191.09
2023-01-02T12:53:07.240Z,100183.94
2023-01-02T12:54:56.801Z,100188.19
2023-01-02T12:56:41.737Z,100195.25
2023-01-02T12:58:29.284Z,100184.47
2023-01-02T13:00:36.733Z,100194.06
2023-01-02T13:02:20.951Z,100188.66
2023-01-02T13:04:07.370Z,100192.06
2023-01-02T13:05:45.356Z,100193.75
2023-01-02T13:07:23.766Z,100185.81
2023-01-02T13:09:03.448Z,100184.88
2023-01-02T13:10:36.892Z,100182.22
2023-01-02T13:12:14.507Z,100182.09
2023-01-02T13:13:48.080Z,100187.34
2023-01-02T13:15:25.017Z,100182.09
2023-01-02T13:17:13.459Z,100183.81
2023-01-02T13:19:00.433Z,100181.97
2023-01-02T13:20:46.758Z,100187.13
2023-01-02T13:22:29.444Z,100177.41
2023-01-02T13:24:04.047Z,100185.41
2023-01-02T13:25:41.166Z,100173.81
2023-01-02T13:27:16.989Z,100181.81
2023-01-02T13:28:56.139Z,100171.13
2023-01-02T13:30:44.254Z,100175.69
2023-01-02T13:32:28.725Z,100167.69
2023-01-02T13:34:09.967Z,100168.63
2023-01-02T13:35:44.895Z,100169.53
2023-01-02T13:37:21.861Z,100176.69
2023-01-02T13:38:57.747Z,100178.47
2023-01-02T13:40:33.548Z,100173.22
2023-01-02T13:42:26.699Z,100174.16
2023-01-02T13:44:05.718Z,100173.28
2023-01-02T13:45:46.368Z,100177.88
2023-01-02T13:47:33.603Z,100183.22
2023-01-02T13:49:15.790Z,100177.13
2023-01-02T13:51:01.185Z,100176.28
2023-01-02T13:52:34.828Z,100174.63
2023-01-02T13:54:15.387Z,100177.41
2023-01-02T13:56:08.218Z,100171.25
2023-01-02T13:57:41.790Z,100166.06
2023-01-02T13:59:42.646Z,100170.72
2023-01-02T14:02:04.799Z,100170.97
2023-01-02T14:03:40.315Z,100173.94
2023-01-02T14:06:01.521Z,100160.19
2023-01-02T14:07:49.744Z,100157.97
2023-01-02T14:09:24.362Z,100174.06
2023-01-02T14:11:01.543Z,100170.69
2023-01-02T14:12:43.369Z,100175.25
2023-01-02T14:14:25.428Z,100169.16
2023-01-02T14:16:44.986Z,100174.69
2023-01-02T14:18:30.641Z,100175.59
2023-01-02T14:20:24.567Z,100164.16
2023-01-02T14:22:14.262Z,100165.13
2023-01-02T14:24:17.509Z,100175.03
2023-01-02T14:25:49.082Z,100166.38
2023-01-02T14:27:25.952Z,100166.59
2023-01-02T14:29:00.897Z,100165.97
2023-01-02T14:30:38.159Z,100169.06
2023-01-02T14:32:22.404Z,100172.88
2023-01-02T14:33:57.729Z,100171.44
2023-01-02T14:35:34.282Z,100171.69
2023-01-02T14:37:12.047Z,100177.38
2023-01-02T14:38:55.179Z,100175.81
2023-01-02T14:40:39.875Z,100165.25
2023-01-02T14:42:52.101Z,100179.63
2023-01-02T14:44:27.373Z,100170.19
2023-01-02T14:46:07.563Z,100174.97
2023-01-02T14:47:43.957Z,100168.13
2023-01-02T14:49:27.140Z,100174.53
2023-01-02T14:51:05.474Z,100177.56
2023-01-02T14:52:43.221Z,100178.81
2023-01-02T14:54:22.847Z,100164.13
2023-01-02T14:56:02.974Z,100167.84
2023-01-02T14:57:40.067Z,100170.69
2023-01-02T14:59:18.365Z,100173.50
2023-01-02T15:00:52.879Z,100172.06
2023-01-02T15:02:32.245Z,100175.72
2023-01-02T15:04:20.250Z,100176.88
2023-01-02T15:05:58.749Z,100183.47
2023-01-02T15:07:39.324Z,100178.53
2023-01-02T15:09:25.497Z,100181.53
2023-01-02T15:11:20.346Z,100175.69
2023-01-02T15:13:03.987Z,100179.66
2023-01-02T15:14:39.597Z,100180.03
2023-01-02T15:16:12.817Z,100176.97
2023-01-02T15:17:48.274Z,100180.78
2023-01-02T15:19:26.571Z,100184.88
2023-01-02T15:21:08.212Z,100187.94
2023-01-02T15:22:43.283Z,100186.41
2023-01-02T15:24:21.898Z,100182.13
2023-01-02T15:26:31.298Z,100186.63
2023-01-02T15:27:55.124Z,100185.72
2023-01-02T15:29:29.568Z,100180.50
2023-01-02T15:31:05.186Z,100194.66
2023-01-02T15:32:38.607Z,100187.78
2023-01-02T15:34:12.443Z,100198.56
2023-01-02T15:35:45.767Z,100200.47
2023-01-02T15:37:20.442Z,100200.69
2023-01-02T15:39:14.893Z,100199.13
2023-01-02T15:40:49.924Z,100204.69
2023-01-02T15:42:43.730Z,100200.41
2023-01-02T15:44:41.364Z,100196.19
2023-01-02T15:46:16.763Z,100201.66
2023-01-02T15:47:52.716Z,100203.63
2023-01-02T15:49:26.496Z,100198.50
2023-01-02T15:51:01.348Z,100200.34
2023-01-02T15:52:35.074Z,100205.78
2023-01-02T15:54:10.921Z,100207.69
2023-01-02T15:55:44.232Z,100209.66
2023-01-02T15:57:20.706Z,100196.59
2023-01-02T15:58:54.590Z,100206.34
2023-01-02T16:00:37.381Z,100201.22
2023-01-02T16:02:19.262Z,100208.44
2023-01-02T16:04:01.325Z,100197.13
2023-01-02T16:05:53.308Z,100203.31
2023-01-02T16:07:30.454Z,100209.53
2023-01-02T16:09:06.825Z,100199.91
2023-01-02T16:10:40.093Z,100215.78
2023-01-02T16:12:24.320Z,100207.94
2023-01-02T16:14:19.745Z,100217.75
2023-01-02T16:16:15.481Z,100208.25
2023-01-02T16:17:52.271Z,100208.38
2023-01-02T16:19:32.355Z,100219.00
2023-01-02T16:21:07.576Z,100216.50
2023-01-02T16:22:45.376Z,100213.97
2023-01-02T16:24:21.809Z,100215.78
2023-01-02T16:25:55.282Z,100222.03
2023-01-02T16:27:33.756Z,100223.91
2023-01-02T16:29:14.635Z,100217.03
2023-01-02T16:30:48.276Z,100227.72
2023-01-02T16:32:30.526Z,100224.25
2023-01-02T16:34:14.987Z,100220.88
2023-01-02T16:35:59.943Z,100219.25
2023-01-02T16:37:36.282Z,100230.63
2023-01-02T16:39:43.725Z,100227.16
2023-01-02T16:42:17.145Z,100231.63
2023-01-02T16:43:51.815Z,100221.22
2023-01-02T16:45:25.238Z,100226.50
2023-01-02T16:46:58.610Z,100223.94
2023-01-02T16:48:33.238Z,100226.69
2023-01-02T16:50:08.998Z,100223.25
2023-01-02T16:51:45.252Z,100229.50
2023-01-02T16:53:23.785Z,100223.44
2023-01-02T16:54:57.258Z,100235.78
2023-01-02T16:56:31.815Z,100234.06
2023-01-02T16:58:07.489Z,100228.91
2023-01-02T16:59:42.527Z,100234.19
2023-01-02T17:01:18.404Z,100230.72
2023-01-02T17:02:53.179Z,100246.63
2023-01-02T17:04:26.739Z,100243.16
2023-01-02T17:06:17.575Z,100250.25
2023-01-02T17:07:56.927Z,100243.28
2023-01-02T17:09:36.144Z,100240.69
2023-01-02T17:11:17.026Z,100246.97
2023-01-02T17:12:50.969Z,100245.25
2023-01-02T17:14:24.292Z,100247.00
2023-01-02T17:15:59.487Z,100243.50
2023-01-02T17:17:33.958Z,100241.84
2023-01-02T17:19:09.936Z,100245.31
2023-01-02T17:20:43.479Z,100241.88
2023-01-02T17:22:17.346Z,100251.53
2023-01-02T17:23:58.956Z,100249.00
2023-01-02T17:25:32.314Z,100252.59
2023-01-02T17:27:05.613Z,100254.34
2023-01-02T17:28:39.437Z,100249.09
2023-01-02T17:30:16.910Z,100245.66
2023-01-02T17:31:51.543Z,100253.53
2023-01-02T17:33:25.303Z,100251.81
2023-01-02T17:34:58.933Z,100249.19
2023-01-02T17:36:32.427Z,100252.75
2023-01-02T17:38:06.274Z,100240.53
2023-01-02T17:39:39.748Z,100239.66
2023-01-02T17:41:13.253Z,100250.22
2023-01-02T17:42:46.837Z,100248.44
2023-01-02T17:44:20.226Z,100247.59
2023-01-02T17:45:54.218Z,100251.16
2023-01-02T17:47:59.540Z,100246.00
2023-01-02T17:49:24.176Z,100246.03
2023-01-02T17:50:57.751Z,100247.81
2023-01-02T17:52:31.551Z,100246.06
2023-01-02T17:54:05.418Z,100245.22
2023-01-02T17:55:38.961Z,100239.06
2023-01-02T17:57:12.999Z,100248.69
2023-01-02T17:58:46.443Z,100248.75
2023-01-02T18:00:23.588Z,100244.34
2023-01-02T18:01:59.826Z,100249.66
2023-01-02T18:03:35.005Z,100256.66
2023-01-02T18:05:09.425Z,100245.31
2023-01-02T18:06:43.016Z,100256.69
2023-01-02T18:08:16.858Z,100247.06
2023-01-02T18:10:09.094Z,100256.72
2023-01-02T18:11:44.295Z,100260.22
2023-01-02T18:13:17.761Z,100260.28
2023-01-02T18:14:51.336Z,100256.78
2023-01-02T18:16:29.718Z,100255.06
2023-01-02T18:18:10.151Z,100259.47
2023-01-02T18:19:45.942Z,100253.31
2023-01-02T18:21:22.226Z,100256.84
2023-01-02T18:22:55.526Z,100257.72
2023-01-02T18:24:32.828Z,100263.00
2023-01-02T18:26:11.666Z,100263.91
2023-01-02T18:27:45.194Z,100264.81
2023-01-02T18:29:22.928Z,100256.94
2023-01-02T18:30:58.297Z,100256.09
2023-01-02T18:32:37.086Z,100258.72
2023-01-02T18:34:46.656Z,100257.84
2023-01-02T18:36:20.878Z,100253.47
2023-01-02T18:37:54.714Z,100249.16
2023-01-02T18:39:33.950Z,100255.31
2023-01-02T18:41:16.139Z,100250.94
2023-01-02T18:43:00.248Z,100250.94
2023-01-02T18:44:33.746Z,100256.19
2023-01-02T18:46:15.228Z,100257.09
2023-01-02T18:47:58.032Z,100253.59
2023-01-02T18:49:39.521Z,100251.84
2023-01-02T18:51:19.834Z,100256.25
2023-01-02T18:52:53.383Z,100267.59
2023-01-02T18:54:31.226Z,100248.38
2023-01-02T18:56:14.179Z,100261.50
2023-01-02T18:57:49.397Z,100259.75
2023-01-02T18:59:31.314Z,100260.63
2023-01-02T19:01:19.051Z,100256.22
2023-01-02T19:02:56.884Z,100266.69
2023-01-02T19:04:36.742Z,100258.84
2023-01-02T19:06:23.858Z,100256.25
2023-01-02T19:08:06.350Z,100255.38
2023-01-02T19:09:39.840Z,100260.63
2023-01-02T19:11:36.530Z,100257.16
2023-01-02T19:13:17.997Z,100266.75
2023-01-02T19:14:56.975Z,100260.63
2023-01-02T19:16:30.423Z,100264.13
2023-01-02T19:18:19.176Z,100265.88
2023-01-02T19:19:53.640Z,100260.63
2023-01-02T19:21:30.463Z,100257.13
2023-01-02T19:23:12.277Z,100252.75
2023-01-02T19:24:45.953Z,100257.13
2023-01-02T19:26:23.802Z,100253.63
2023-01-02T19:28:02.226Z,100256.25
2023-01-02T19:29:38.738Z,100248.38
2023-01-02T19:31:15.789Z,100252.78
2023-01-02T19:32:49.549Z,100256.28
2023-01-02T19:34:34.777Z,100264.13
2023-01-02T19:36:18.777Z,100261.50
2023-01-02T19:37:53.833Z,100267.63
2023-01-02T19:39:29.172Z,100264.13
2023-01-02T19:41:02.508Z,100269.34
2023-01-02T19:42:35.949Z,100264.09
2023-01-02T19:44:11.064Z,100253.63
2023-01-02T19:45:44.552Z,100263.25
2023-01-02T19:47:18.657Z,100267.59
2023-01-02T19:48:52.292Z,100263.25
2023-01-02T19:50:28.260Z,100266.72
2023-01-02T19:52:02.233Z,100264.97
2023-01-02T19:53:36.850Z,100271.94
2023-01-02T19:55:13.319Z,100271.09
2023-01-02T19:56:49.179Z,100264.97
2023-01-02T19:58:25.528Z,100264.09
2023-01-02T20:00:00.222Z,100272.81
2023-01-02T20:01:33.704Z,100264.94
2023-01-02T20:03:07.819Z,100264.94
2023-01-02T20:04:41.323Z,100261.47
2023-01-02T20:06:17.523Z,100260.59
2023-01-02T20:07:53.396Z,100264.06
2023-01-02T20:09:29.644Z,100269.31
2023-01-02T20:11:02.910Z,100259.69
2023-01-02T20:12:37.944Z,100255.34
2023-01-02T20:14:11.468Z,100266.69
2023-01-02T20:15:44.784Z,100259.69
2023-01-02T20:17:18.558Z,100257.06
2023-01-02T20:18:51.896Z,100258.84
2023-01-02T20:20:26.879Z,100264.06
2023-01-02T20:22:00.522Z,100267.56
2023-01-02T20:23:33.655Z,100265.78
2023-01-02T20:25:09.089Z,100264.03
2023-01-02T20:26:42.525Z,100259.66
2023-01-02T20:28:15.843Z,100263.16
2023-01-02T20:29:49.233Z,100263.13
2023-01-02T20:31:22.715Z,100266.63
2023-01-02T20:32:56.489Z,100263.94
2023-01-02T20:34:29.620Z,100262.19
2023-01-02T20:36:03.633Z,100253.44
2023-01-02T20:37:39.220Z,100255.19
2023-01-02T20:39:12.697Z,100263.91
2023-01-02T20:40:47.636Z,100258.66
2023-01-02T20:42:21.338Z,100259.53
2023-01-02T20:43:54.615Z,100256.00
2023-01-02T20:45:28.162Z,100251.66
2023-01-02T20:47:02.504Z,100253.38
2023-01-02T20:48:35.657Z,100257.72
2023-01-02T20:50:09.807Z,100257.72
2023-01-02T20:51:43.253Z,100262.06
2023-01-02T20:53:16.459Z,100263.81
2023-01-02T20:56:29.517Z,100266.34
2023-01-02T20:58:02.819Z,100271.59
2023-01-02T20:59:36.374Z,100266.34
2023-01-02T21:01:09.757Z,100272.44
2023-01-02T21:02:43.117Z,100270.72
2023-01-02T21:04:22.595Z,100267.22
2023-01-02T21:06:01.060Z,100269.81
2023-01-02T21:07:34.296Z,100275.06
2023-01-02T21:09:07.662Z,100276.81
2023-01-02T21:10:42.296Z,100275.03
2023-01-02T21:12:46.002Z,100267.22
2023-01-02T21:14:19.635Z,100280.28
2023-01-02T21:15:53.065Z,100275.94
2023-01-02T21:17:26.196Z,100272.44
2023-01-02T21:19:00.459Z,100279.41
2023-01-02T21:20:33.727Z,100268.91
2023-01-02T21:22:06.906Z,100272.41
2023-01-02T21:23:40.503Z,100280.25
2023-01-02T21:25:13.742Z,100278.47
2023-01-02T21:26:47.165Z,100270.59
2023-01-02T21:28:23.117Z,100269.69
2023-01-02T21:29:56.263Z,100274.94
2023-01-02T21:31:30.033Z,100270.56
2023-01-02T21:33:03.389Z,100271.44
2023-01-02T21:34:36.667Z,100277.56
2023-01-02T21:36:12.117Z,100274.03
2023-01-02T21:37:45.330Z,100267.06
2023-01-02T21:39:18.973Z,100272.28
2023-01-02T21:40:53.071Z,100266.16
2023-01-02T21:42:25.288Z,100270.50
2023-01-02T21:43:59.755Z,100270.47
2023-01-02T21:45:33.075Z,100270.44
2023-01-02T21:47:06.491Z,100266.94
2023-01-02T21:48:39.774Z,100259.06
2023-01-02T21:50:13.544Z,100263.41
2023-01-02T21:51:46.737Z,100268.63
2023-01-02T21:53:20.042Z,100251.13
2023-01-02T21:54:53.165Z,100266.84
2023-01-02T21:56:27.480Z,100259.84
2023-01-02T21:58:16.076Z,100260.69
2023-01-02T21:59:53.260Z,100259.81
2023-01-02T22:01:26.524Z,100246.66
2023-01-02T22:03:00.108Z,100256.28
2023-01-02T22:04:34.239Z,100257.16
2023-01-02T22:06:08.274Z,100262.38
2023-01-02T22:07:42.563Z,100258.88
2023-01-02T22:09:16.745Z,100259.72
2023-01-02T22:10:49.969Z,100258.88
2023-01-02T22:12:22.611Z,100265.84
2023-01-02T22:13:55.744Z,100251.91
2023-01-02T22:15:30.624Z,100257.97
2023-01-02T22:17:05.919Z,100253.59
2023-01-02T22:18:39.335Z,100253.56
2023-01-02T22:20:13.150Z,100260.53
2023-01-02T22:21:46.839Z,100252.66
2023-01-02T22:23:19.954Z,100256.19
2023-01-02T22:24:53.851Z,100252.66
2023-01-02T22:26:27.030Z,100256.16
2023-01-02T22:28:00.564Z,100251.81
2023-01-02T22:30:09.686Z,100264.84
2023-01-02T22:31:30.570Z,100250.84
2023-01-02T22:33:04.410Z,100258.66
2023-01-02T22:34:43.336Z,100261.28
2023-01-02T22:36:16.749Z,100250.78
2023-01-02T22:37:50.293Z,100253.41
2023-01-02T22:39:28.338Z,100252.50
2023-01-02T22:41:02.173Z,100251.59
2023-01-02T22:43:10.426Z,100247.25
2023-01-02T22:44:45.027Z,100256.00
2023-01-02T22:46:28.093Z,100251.63
2023-01-02T22:48:07.443Z,100248.16
2023-01-02T22:49:41.540Z,100245.53
2023-01-02T22:51:15.875Z,100246.44
2023-01-02T22:52:50.379Z,100243.81
2023-01-02T22:54:25.283Z,100242.03
2023-01-02T22:55:58.507Z,100243.75
2023-01-02T22:57:31.830Z,100240.22
2023-01-02T22:59:04.924Z,100232.38
2023-01-02T23:00:38.306Z,100231.50
2023-01-02T23:02:15.223Z,100229.72
2023-01-02T23:03:50.299Z,100224.44
2023-01-02T23:05:23.497Z,100226.16
2023-01-02T23:08:50.570Z,100207.00
2023-01-02T23:10:23.699Z,100222.72
2023-01-02T23:11:56.905Z,100219.25
2023-01-02T23:13:30.272Z,100213.09
2023-01-02T23:15:03.739Z,100226.16
2023-01-02T23:16:56.216Z,100212.16
2023-01-02T23:18:50.292Z,100212.16
2023-01-02T23:20:29.308Z,100212.09
2023-01-02T23:22:02.585Z,100213.81
2023-01-02T23:23:36.080Z,100213.78
2023-01-02T23:25:10.118Z,100213.72
2023-01-02T23:26:44.348Z,100222.44
2023-01-02T23:28:39.363Z,100213.72
2023-01-02T23:30:12.494Z,100217.09
2023-01-02T23:31:47.373Z,100211.00
2023-01-02T23:33:21.127Z,100219.69
2023-01-02T23:34:54.282Z,100215.31
2023-01-02T23:36:29.189Z,100216.16
2023-01-02T23:38:02.403Z,100215.19
2023-01-02T23:39:36.369Z,100215.19
2023-01-02T23:41:09.504Z,100204.75
2023-01-02T23:42:42.937Z,100216.06
2023-01-02T23:44:17.273Z,100207.41
2023-01-02T23:45:51.000Z,100208.22
2023-01-02T23:47:24.125Z,100207.34
2023-01-02T23:48:57.404Z,100206.47
2023-01-02T23:50:30.572Z,100208.22
2023-01-02T23:52:05.970Z,100214.34
2023-01-02T23:53:39.551Z,100200.34
2023-01-02T23:55:13.005Z,100209.97
2023-01-02T23:56:48.612Z,100211.75
2023-01-02T23:58:22.046Z,100213.47
2023-01-02T23:59:55.187Z,100214.38
